Terminal Aerodrome Forecast
Issued by NWS

Home | Current Version | Previous Version | Text Only | Print | Product List | Glossary On
Versions: 1 2 3 4 5 6 7 8 9 10 11 12 13 14 15
285
FTUS45 KRIW 251720
TAFCPR
TAF
KCPR 251720Z 2518/2618 22020G30KT P6SM SKC
     FM260000 26012G18KT P6SM SCT250
     FM260200 01012G20KT P6SM FEW030 SCT050
     FM260600 02015G30KT P6SM VCSH SCT030 OVC050
     FM260800 02015G30KT 4SM -SHRA SCT015 OVC030
     FM261100 03014G22KT P6SM VCSH SCT025 BKN040
     FM261600 03011KT P6SM BKN050=

USA.gov is the U.S. government's official web portal to all federal, state and local government web resources and services.